This is the latest recevied weather packets stored in our database for station/object N5LOC. If no packets are shown the sender has not sent any weather packets the latest 10 day(s).
| Time | Temp. | Humidity | Pressure | Rain* | Wind** | Luminosity | Snow |
|---|---|---|---|---|---|---|---|
| 1777883427 | 18.33° C | 69% | 1014.9 hPa | 0 mm | - | - | - |
| 1777881628 | 18.33° C | 66% | 1015 hPa | 0 mm | - | - | - |
| 1777879829 | 18.33° C | 66% | 1015.2 hPa | 0 mm | - | - | - |
| 1777878032 | 18.33° C | 65% | 1015.5 hPa | 0 mm | - | - | - |
| 1777876229 | 18.89° C | 64% | 1016 hPa | 0 mm | - | - | - |
| 1777874425 | 19.44° C | 63% | 1016.4 hPa | 0 mm | - | - | - |
| 1777872626 | 19.44° C | 63% | 1016.7 hPa | 0 mm | - | - | - |
| 1777870832 | 20° C | 62% | 1016.9 hPa | 0 mm | - | - | - |
| 1777869025 | 20° C | 60% | 1017 hPa | 0 mm | - | - | - |
| 1777867224 | 20.56° C | 59% | 1017 hPa | 0 mm | - | - | - |
| 1777865428 | 21.11° C | 57% | 1016.9 hPa | 0 mm | - | - | - |
| 1777863626 | 21.67° C | 55% | 1016.9 hPa | 0 mm | - | - | - |
| 1777861829 | 22.22° C | 53% | 1016.9 hPa | 0 mm | - | - | - |
| 1777860029 | 22.78° C | 51% | 1016.7 hPa | 0 mm | - | - | - |
| 1777858228 | 23.33° C | 49% | 1016.7 hPa | 0 mm | - | - | - |
| 1777856428 | 24.44° C | 46% | 1016.5 hPa | 0 mm | - | - | - |
| 1777854623 | 26.11° C | 41% | 1016.5 hPa | 0 mm | - | - | - |
| 1777852827 | 27.22° C | 40% | 1016.7 hPa | 0 mm | - | - | - |
| 1777851023 | 27.22° C | 41% | 1016.8 hPa | 0 mm | - | - | - |
| 1777849235 | 28.33° C | 40% | 1017 hPa | 0 mm | - | - | - |
| 1777847423 | 28.89° C | 38% | 1017.2 hPa | 0 mm | - | - | - |
| 1777845623 | 28.89° C | 38% | 1017.5 hPa | 0 mm | - | - | - |
| 1777843830 | 28.33° C | 38% | 1017.9 hPa | 0 mm | - | - | - |
| 1777842022 | 28.33° C | 37% | 1018.2 hPa | 0 mm | - | - | - |
| 1777840224 | 27.78° C | 37% | 1018.8 hPa | 0 mm | - | - | - |
* Rain latest hour (hover to see other rain measurements)
** Current wind speed in m/s (hover to see current wind gust speed)